sensor_id;sensor_type;location;lat;lon;timestamp;P1;durP1;ratioP1;P2;durP2;ratioP2
28627;SDS011;15815;46.760;19.604;2023-04-01T00:00:53;2.80;;;1.88;;
28627;SDS011;15815;46.760;19.604;2023-04-01T00:03:20;2.90;;;1.80;;
28627;SDS011;15815;46.760;19.604;2023-04-01T00:05:47;2.22;;;1.90;;
28627;SDS011;15815;46.760;19.604;2023-04-01T00:08:13;2.55;;;1.92;;
28627;SDS011;15815;46.760;19.604;2023-04-01T00:10:39;3.88;;;1.65;;
28627;SDS011;15815;46.760;19.604;2023-04-01T00:13:05;5.97;;;2.30;;
28627;SDS011;15815;46.760;19.604;2023-04-01T00:15:31;4.68;;;1.90;;
28627;SDS011;15815;46.760;19.604;2023-04-01T00:17:57;2.47;;;1.83;;
28627;SDS011;15815;46.760;19.604;2023-04-01T00:20:26;5.10;;;1.88;;
28627;SDS011;15815;46.760;19.604;2023-04-01T00:22:54;3.95;;;1.67;;
28627;SDS011;15815;46.760;19.604;2023-04-01T00:25:19;7.25;;;2.40;;
28627;SDS011;15815;46.760;19.604;2023-04-01T00:27:47;3.25;;;1.83;;
28627;SDS011;15815;46.760;19.604;2023-04-01T00:30:13;3.92;;;1.90;;
28627;SDS011;15815;46.760;19.604;2023-04-01T00:32:39;2.60;;;1.55;;
28627;SDS011;15815;46.760;19.604;2023-04-01T00:35:04;4.85;;;1.80;;
28627;SDS011;15815;46.760;19.604;2023-04-01T00:37:37;8.48;;;2.40;;
28627;SDS011;15815;46.760;19.604;2023-04-01T00:40:03;2.78;;;1.98;;
28627;SDS011;15815;46.760;19.604;2023-04-01T00:42:30;5.50;;;2.30;;
28627;SDS011;15815;46.760;19.604;2023-04-01T00:44:56;2.63;;;1.77;;
28627;SDS011;15815;46.760;19.604;2023-04-01T00:47:22;2.45;;;1.88;;
28627;SDS011;15815;46.760;19.604;2023-04-01T00:49:54;2.08;;;1.88;;
28627;SDS011;15815;46.760;19.604;2023-04-01T00:52:21;4.28;;;1.70;;
28627;SDS011;15815;46.760;19.604;2023-04-01T00:54:52;3.58;;;1.85;;
28627;SDS011;15815;46.760;19.604;2023-04-01T00:57:27;4.45;;;1.70;;
28627;SDS011;15815;46.760;19.604;2023-04-01T00:59:57;3.67;;;1.63;;
28627;SDS011;15815;46.760;19.604;2023-04-01T01:02:24;2.40;;;1.90;;
28627;SDS011;15815;46.760;19.604;2023-04-01T01:04:52;2.75;;;1.40;;
28627;SDS011;15815;46.760;19.604;2023-04-01T01:10:18;2.45;;;1.83;;
28627;SDS011;15815;46.760;19.604;2023-04-01T01:18:24;3.50;;;1.95;;
28627;SDS011;15815;46.760;19.604;2023-04-01T01:24:06;3.17;;;2.08;;
28627;SDS011;15815;46.760;19.604;2023-04-01T01:31:53;3.65;;;2.05;;
28627;SDS011;15815;46.760;19.604;2023-04-01T01:34:34;3.25;;;2.13;;
28627;SDS011;15815;46.760;19.604;2023-04-01T01:37:09;8.30;;;2.10;;
28627;SDS011;15815;46.760;19.604;2023-04-01T01:42:11;3.13;;;2.22;;
28627;SDS011;15815;46.760;19.604;2023-04-01T01:44:39;2.88;;;1.80;;
28627;SDS011;15815;46.760;19.604;2023-04-01T01:47:08;5.72;;;2.33;;
28627;SDS011;15815;46.760;19.604;2023-04-01T01:49:34;3.03;;;2.05;;
28627;SDS011;15815;46.760;19.604;2023-04-01T01:52:01;5.10;;;2.15;;
28627;SDS011;15815;46.760;19.604;2023-04-01T01:54:30;3.42;;;2.00;;
28627;SDS011;15815;46.760;19.604;2023-04-01T01:56:58;3.85;;;2.35;;
28627;SDS011;15815;46.760;19.604;2023-04-01T01:59:33;6.78;;;2.47;;
28627;SDS011;15815;46.760;19.604;2023-04-01T02:02:06;2.88;;;2.05;;
28627;SDS011;15815;46.760;19.604;2023-04-01T02:04:36;3.20;;;2.13;;
28627;SDS011;15815;46.760;19.604;2023-04-01T02:07:07;2.55;;;2.30;;
28627;SDS011;15815;46.760;19.604;2023-04-01T02:09:39;3.55;;;1.85;;
28627;SDS011;15815;46.760;19.604;2023-04-01T02:12:06;3.97;;;2.17;;
28627;SDS011;15815;46.760;19.604;2023-04-01T02:14:39;4.72;;;1.90;;
28627;SDS011;15815;46.760;19.604;2023-04-01T02:17:11;3.15;;;2.00;;
28627;SDS011;15815;46.760;19.604;2023-04-01T02:19:43;3.13;;;1.92;;
28627;SDS011;15815;46.760;19.604;2023-04-01T02:22:16;2.10;;;1.90;;
28627;SDS011;15815;46.760;19.604;2023-04-01T02:24:45;3.67;;;1.80;;
28627;SDS011;15815;46.760;19.604;2023-04-01T02:27:13;3.00;;;1.65;;
28627;SDS011;15815;46.760;19.604;2023-04-01T02:29:39;2.85;;;1.83;;
28627;SDS011;15815;46.760;19.604;2023-04-01T02:32:06;2.95;;;1.83;;
28627;SDS011;15815;46.760;19.604;2023-04-01T02:34:34;4.35;;;1.40;;
28627;SDS011;15815;46.760;19.604;2023-04-01T02:37:01;4.47;;;1.90;;
28627;SDS011;15815;46.760;19.604;2023-04-01T02:39:26;3.88;;;2.00;;
28627;SDS011;15815;46.760;19.604;2023-04-01T02:41:52;6.55;;;2.40;;
28627;SDS011;15815;46.760;19.604;2023-04-01T02:44:18;3.38;;;2.20;;
28627;SDS011;15815;46.760;19.604;2023-04-01T02:46:44;2.70;;;1.90;;
28627;SDS011;15815;46.760;19.604;2023-04-01T02:49:09;4.80;;;2.33;;
28627;SDS011;15815;46.760;19.604;2023-04-01T02:51:35;3.45;;;2.20;;
28627;SDS011;15815;46.760;19.604;2023-04-01T02:54:00;2.60;;;1.90;;
28627;SDS011;15815;46.760;19.604;2023-04-01T02:56:26;2.42;;;1.90;;
28627;SDS011;15815;46.760;19.604;2023-04-01T02:58:52;3.92;;;2.13;;
28627;SDS011;15815;46.760;19.604;2023-04-01T03:01:18;3.65;;;1.88;;
28627;SDS011;15815;46.760;19.604;2023-04-01T03:03:44;4.40;;;1.98;;
28627;SDS011;15815;46.760;19.604;2023-04-01T03:06:11;2.50;;;2.10;;
28627;SDS011;15815;46.760;19.604;2023-04-01T03:08:38;3.20;;;2.08;;
28627;SDS011;15815;46.760;19.604;2023-04-01T03:11:03;3.13;;;2.03;;
28627;SDS011;15815;46.760;19.604;2023-04-01T03:13:29;2.15;;;1.80;;
28627;SDS011;15815;46.760;19.604;2023-04-01T03:15:55;4.25;;;2.33;;
28627;SDS011;15815;46.760;19.604;2023-04-01T03:18:20;4.55;;;2.03;;
28627;SDS011;15815;46.760;19.604;2023-04-01T03:20:46;3.97;;;2.30;;
28627;SDS011;15815;46.760;19.604;2023-04-01T03:23:12;4.22;;;2.08;;
28627;SDS011;15815;46.760;19.604;2023-04-01T03:25:37;5.07;;;1.83;;
28627;SDS011;15815;46.760;19.604;2023-04-01T03:28:03;4.78;;;2.00;;
28627;SDS011;15815;46.760;19.604;2023-04-01T03:30:29;2.47;;;1.80;;
28627;SDS011;15815;46.760;19.604;2023-04-01T03:32:55;2.58;;;1.80;;
28627;SDS011;15815;46.760;19.604;2023-04-01T03:35:20;2.05;;;1.75;;
28627;SDS011;15815;46.760;19.604;2023-04-01T03:37:46;1.98;;;1.70;;
28627;SDS011;15815;46.760;19.604;2023-04-01T03:40:12;3.92;;;2.00;;
28627;SDS011;15815;46.760;19.604;2023-04-01T03:42:38;2.65;;;2.00;;
28627;SDS011;15815;46.760;19.604;2023-04-01T03:45:03;5.50;;;1.83;;
28627;SDS011;15815;46.760;19.604;2023-04-01T03:47:31;3.83;;;1.90;;
28627;SDS011;15815;46.760;19.604;2023-04-01T03:49:56;3.30;;;2.08;;
28627;SDS011;15815;46.760;19.604;2023-04-01T03:52:25;4.57;;;2.17;;
28627;SDS011;15815;46.760;19.604;2023-04-01T03:54:51;4.60;;;2.67;;
28627;SDS011;15815;46.760;19.604;2023-04-01T03:57:16;2.90;;;1.88;;
28627;SDS011;15815;46.760;19.604;2023-04-01T03:59:43;3.40;;;2.20;;
28627;SDS011;15815;46.760;19.604;2023-04-01T04:02:08;5.28;;;2.13;;
28627;SDS011;15815;46.760;19.604;2023-04-01T04:04:34;2.60;;;2.08;;
28627;SDS011;15815;46.760;19.604;2023-04-01T04:07:00;3.28;;;2.20;;
28627;SDS011;15815;46.760;19.604;2023-04-01T04:09:30;4.13;;;2.20;;
28627;SDS011;15815;46.760;19.604;2023-04-01T04:11:56;3.95;;;2.67;;
28627;SDS011;15815;46.760;19.604;2023-04-01T04:14:22;3.20;;;2.00;;
28627;SDS011;15815;46.760;19.604;2023-04-01T04:16:48;3.55;;;2.33;;
28627;SDS011;15815;46.760;19.604;2023-04-01T04:19:15;5.40;;;2.20;;
28627;SDS011;15815;46.760;19.604;2023-04-01T04:21:41;3.03;;;2.47;;
28627;SDS011;15815;46.760;19.604;2023-04-01T04:24:07;1.88;;;1.73;;
28627;SDS011;15815;46.760;19.604;2023-04-01T04:26:34;4.05;;;2.17;;
28627;SDS011;15815;46.760;19.604;2023-04-01T04:29:00;3.13;;;2.50;;
28627;SDS011;15815;46.760;19.604;2023-04-01T04:31:26;4.07;;;2.63;;
28627;SDS011;15815;46.760;19.604;2023-04-01T04:33:52;16.83;;;8.55;;
28627;SDS011;15815;46.760;19.604;2023-04-01T04:36:18;28.85;;;12.30;;
28627;SDS011;15815;46.760;19.604;2023-04-01T04:38:46;18.05;;;9.55;;
28627;SDS011;15815;46.760;19.604;2023-04-01T04:41:12;16.33;;;7.15;;
28627;SDS011;15815;46.760;19.604;2023-04-01T04:43:40;6.10;;;4.40;;
28627;SDS011;15815;46.760;19.604;2023-04-01T04:46:07;6.68;;;3.63;;
28627;SDS011;15815;46.760;19.604;2023-04-01T04:48:36;5.38;;;3.00;;
28627;SDS011;15815;46.760;19.604;2023-04-01T04:51:02;5.13;;;3.08;;
28627;SDS011;15815;46.760;19.604;2023-04-01T04:53:28;5.47;;;3.25;;
28627;SDS011;15815;46.760;19.604;2023-04-01T04:55:54;4.93;;;2.72;;
28627;SDS011;15815;46.760;19.604;2023-04-01T04:58:20;5.85;;;3.38;;
28627;SDS011;15815;46.760;19.604;2023-04-01T05:00:45;3.95;;;2.47;;
28627;SDS011;15815;46.760;19.604;2023-04-01T05:03:12;4.20;;;2.92;;
28627;SDS011;15815;46.760;19.604;2023-04-01T05:05:38;4.88;;;3.10;;
28627;SDS011;15815;46.760;19.604;2023-04-01T05:08:06;4.03;;;3.20;;
28627;SDS011;15815;46.760;19.604;2023-04-01T05:10:31;5.45;;;2.92;;
28627;SDS011;15815;46.760;19.604;2023-04-01T05:12:58;5.43;;;2.95;;
28627;SDS011;15815;46.760;19.604;2023-04-01T05:15:24;7.25;;;2.85;;
28627;SDS011;15815;46.760;19.604;2023-04-01T05:17:50;6.88;;;3.40;;
28627;SDS011;15815;46.760;19.604;2023-04-01T05:20:16;6.85;;;3.13;;
28627;SDS011;15815;46.760;19.604;2023-04-01T05:22:42;5.55;;;3.10;;
28627;SDS011;15815;46.760;19.604;2023-04-01T05:25:08;7.40;;;5.13;;
28627;SDS011;15815;46.760;19.604;2023-04-01T05:27:34;9.30;;;7.05;;
28627;SDS011;15815;46.760;19.604;2023-04-01T05:30:00;9.52;;;6.60;;
28627;SDS011;15815;46.760;19.604;2023-04-01T05:32:25;14.68;;;8.80;;
28627;SDS011;15815;46.760;19.604;2023-04-01T05:34:51;31.50;;;21.80;;
28627;SDS011;15815;46.760;19.604;2023-04-01T05:37:18;21.63;;;16.60;;
28627;SDS011;15815;46.760;19.604;2023-04-01T05:39:44;50.33;;;36.13;;
28627;SDS011;15815;46.760;19.604;2023-04-01T05:42:09;36.70;;;26.58;;
28627;SDS011;15815;46.760;19.604;2023-04-01T05:44:35;17.65;;;12.82;;
28627;SDS011;15815;46.760;19.604;2023-04-01T05:47:02;10.60;;;6.03;;
28627;SDS011;15815;46.760;19.604;2023-04-01T05:49:30;14.25;;;12.32;;
28627;SDS011;15815;46.760;19.604;2023-04-01T05:51:56;11.82;;;8.25;;
28627;SDS011;15815;46.760;19.604;2023-04-01T05:54:22;9.32;;;3.92;;
28627;SDS011;15815;46.760;19.604;2023-04-01T05:56:47;4.57;;;3.50;;
28627;SDS011;15815;46.760;19.604;2023-04-01T05:59:13;4.43;;;3.65;;
28627;SDS011;15815;46.760;19.604;2023-04-01T06:01:38;3.53;;;3.10;;
28627;SDS011;15815;46.760;19.604;2023-04-01T06:04:05;7.47;;;3.30;;
28627;SDS011;15815;46.760;19.604;2023-04-01T06:06:31;8.50;;;4.97;;
28627;SDS011;15815;46.760;19.604;2023-04-01T06:09:06;10.30;;;7.13;;
28627;SDS011;15815;46.760;19.604;2023-04-01T06:17:43;5.15;;;3.55;;
28627;SDS011;15815;46.760;19.604;2023-04-01T06:20:32;5.85;;;3.67;;
28627;SDS011;15815;46.760;19.604;2023-04-01T06:25:47;6.95;;;3.97;;
28627;SDS011;15815;46.760;19.604;2023-04-01T06:28:31;10.70;;;6.00;;
28627;SDS011;15815;46.760;19.604;2023-04-01T06:34:44;5.45;;;3.35;;
28627;SDS011;15815;46.760;19.604;2023-04-01T06:42:32;10.77;;;5.82;;
28627;SDS011;15815;46.760;19.604;2023-04-01T06:53:54;8.35;;;4.47;;
28627;SDS011;15815;46.760;19.604;2023-04-01T06:56:28;11.48;;;5.78;;
28627;SDS011;15815;46.760;19.604;2023-04-01T07:04:37;5.32;;;3.83;;
28627;SDS011;15815;46.760;19.604;2023-04-01T07:07:17;6.10;;;4.88;;
28627;SDS011;15815;46.760;19.604;2023-04-01T07:10:04;5.20;;;4.10;;
28627;SDS011;15815;46.760;19.604;2023-04-01T07:12:37;6.72;;;4.03;;
28627;SDS011;15815;46.760;19.604;2023-04-01T07:17:55;8.75;;;3.88;;
28627;SDS011;15815;46.760;19.604;2023-04-01T07:20:30;8.90;;;4.30;;
28627;SDS011;15815;46.760;19.604;2023-04-01T07:23:08;10.63;;;5.57;;
28627;SDS011;15815;46.760;19.604;2023-04-01T07:25:42;5.43;;;4.45;;
28627;SDS011;15815;46.760;19.604;2023-04-01T07:28:12;7.68;;;4.20;;
28627;SDS011;15815;46.760;19.604;2023-04-01T07:30:43;6.65;;;3.90;;
28627;SDS011;15815;46.760;19.604;2023-04-01T07:33:33;9.55;;;5.18;;
28627;SDS011;15815;46.760;19.604;2023-04-01T07:36:13;6.78;;;4.18;;
28627;SDS011;15815;46.760;19.604;2023-04-01T07:39:23;6.03;;;4.03;;
28627;SDS011;15815;46.760;19.604;2023-04-01T07:42:39;11.63;;;4.43;;
28627;SDS011;15815;46.760;19.604;2023-04-01T07:45:03;9.55;;;4.25;;
28627;SDS011;15815;46.760;19.604;2023-04-01T07:51:09;8.52;;;4.68;;
28627;SDS011;15815;46.760;19.604;2023-04-01T07:53:50;8.45;;;4.65;;
28627;SDS011;15815;46.760;19.604;2023-04-01T07:56:33;6.05;;;4.32;;
28627;SDS011;15815;46.760;19.604;2023-04-01T08:07:13;17.35;;;7.97;;
28627;SDS011;15815;46.760;19.604;2023-04-01T08:09:49;12.00;;;6.85;;
28627;SDS011;15815;46.760;19.604;2023-04-01T08:15:10;13.27;;;5.35;;
28627;SDS011;15815;46.760;19.604;2023-04-01T08:17:46;12.32;;;7.13;;
28627;SDS011;15815;46.760;19.604;2023-04-01T08:20:37;13.02;;;6.43;;
28627;SDS011;15815;46.760;19.604;2023-04-01T08:25:37;6.03;;;3.95;;
28627;SDS011;15815;46.760;19.604;2023-04-01T08:30:47;11.02;;;4.60;;
28627;SDS011;15815;46.760;19.604;2023-04-01T08:33:29;10.75;;;4.00;;
28627;SDS011;15815;46.760;19.604;2023-04-01T08:36:58;8.63;;;4.55;;
28627;SDS011;15815;46.760;19.604;2023-04-01T08:39:12;7.70;;;4.20;;
28627;SDS011;15815;46.760;19.604;2023-04-01T08:42:05;6.93;;;3.63;;
28627;SDS011;15815;46.760;19.604;2023-04-01T08:47:39;9.88;;;4.80;;
28627;SDS011;15815;46.760;19.604;2023-04-01T08:56:01;5.22;;;3.03;;
28627;SDS011;15815;46.760;19.604;2023-04-01T09:17:57;5.72;;;1.70;;
28627;SDS011;15815;46.760;19.604;2023-04-01T09:23:37;6.47;;;2.30;;
28627;SDS011;15815;46.760;19.604;2023-04-01T09:34:30;8.50;;;1.65;;
28627;SDS011;15815;46.760;19.604;2023-04-01T09:45:27;3.05;;;1.40;;
28627;SDS011;15815;46.760;19.604;2023-04-01T09:48:08;5.45;;;1.75;;
28627;SDS011;15815;46.760;19.604;2023-04-01T10:01:47;3.70;;;1.45;;
28627;SDS011;15815;46.760;19.604;2023-04-01T10:12:55;7.05;;;2.30;;
28627;SDS011;15815;46.760;19.604;2023-04-01T10:21:49;4.45;;;1.92;;
28627;SDS011;15815;46.760;19.604;2023-04-01T10:33:15;3.55;;;1.63;;
28627;SDS011;15815;46.760;19.604;2023-04-01T10:55:36;3.58;;;1.48;;
28627;SDS011;15815;46.760;19.604;2023-04-01T10:58:46;8.57;;;3.25;;
28627;SDS011;15815;46.760;19.604;2023-04-01T11:12:19;4.82;;;2.20;;
28627;SDS011;15815;46.760;19.604;2023-04-01T11:18:50;6.38;;;2.20;;
28627;SDS011;15815;46.760;19.604;2023-04-01T11:29:46;5.93;;;2.60;;
28627;SDS011;15815;46.760;19.604;2023-04-01T11:35:19;8.02;;;1.95;;
28627;SDS011;15815;46.760;19.604;2023-04-01T11:44:00;4.57;;;1.73;;
28627;SDS011;15815;46.760;19.604;2023-04-01T11:52:27;5.97;;;2.75;;
28627;SDS011;15815;46.760;19.604;2023-04-01T12:03:43;6.35;;;1.73;;
28627;SDS011;15815;46.760;19.604;2023-04-01T12:18:12;7.47;;;1.88;;
28627;SDS011;15815;46.760;19.604;2023-04-01T12:20:49;2.47;;;1.17;;
28627;SDS011;15815;46.760;19.604;2023-04-01T12:43:27;1.90;;;0.93;;
28627;SDS011;15815;46.760;19.604;2023-04-01T12:56:44;3.50;;;1.30;;
28627;SDS011;15815;46.760;19.604;2023-04-01T13:14:28;5.80;;;1.55;;
28627;SDS011;15815;46.760;19.604;2023-04-01T13:16:57;4.50;;;1.33;;
28627;SDS011;15815;46.760;19.604;2023-04-01T13:25:06;3.88;;;1.38;;
28627;SDS011;15815;46.760;19.604;2023-04-01T13:27:40;5.85;;;1.45;;
28627;SDS011;15815;46.760;19.604;2023-04-01T13:32:58;6.53;;;1.20;;
28627;SDS011;15815;46.760;19.604;2023-04-01T13:35:57;5.55;;;2.17;;
28627;SDS011;15815;46.760;19.604;2023-04-01T13:44:15;2.63;;;1.20;;
28627;SDS011;15815;46.760;19.604;2023-04-01T13:47:12;2.95;;;1.02;;
28627;SDS011;15815;46.760;19.604;2023-04-01T13:52:36;6.05;;;1.30;;
28627;SDS011;15815;46.760;19.604;2023-04-01T14:03:48;5.55;;;1.70;;
28627;SDS011;15815;46.760;19.604;2023-04-01T14:06:30;4.68;;;1.70;;
28627;SDS011;15815;46.760;19.604;2023-04-01T14:12:05;5.45;;;1.63;;
28627;SDS011;15815;46.760;19.604;2023-04-01T14:31:27;2.80;;;1.40;;
28627;SDS011;15815;46.760;19.604;2023-04-01T14:34:09;14.50;;;3.47;;
28627;SDS011;15815;46.760;19.604;2023-04-01T14:39:25;4.60;;;2.25;;
28627;SDS011;15815;46.760;19.604;2023-04-01T14:50:41;5.22;;;1.05;;
28627;SDS011;15815;46.760;19.604;2023-04-01T14:55:50;3.67;;;1.23;;
28627;SDS011;15815;46.760;19.604;2023-04-01T14:58:18;8.73;;;1.60;;
28627;SDS011;15815;46.760;19.604;2023-04-01T15:19:26;3.40;;;1.30;;
28627;SDS011;15815;46.760;19.604;2023-04-01T15:24:46;5.30;;;2.22;;
28627;SDS011;15815;46.760;19.604;2023-04-01T15:30:34;7.72;;;1.65;;
28627;SDS011;15815;46.760;19.604;2023-04-01T15:33:34;4.55;;;1.23;;
28627;SDS011;15815;46.760;19.604;2023-04-01T15:52:10;2.70;;;1.40;;
28627;SDS011;15815;46.760;19.604;2023-04-01T16:14:11;1.55;;;1.00;;
28627;SDS011;15815;46.760;19.604;2023-04-01T16:19:19;6.43;;;1.00;;
28627;SDS011;15815;46.760;19.604;2023-04-01T16:22:06;4.13;;;1.08;;
28627;SDS011;15815;46.760;19.604;2023-04-01T16:38:52;5.43;;;2.28;;
28627;SDS011;15815;46.760;19.604;2023-04-01T16:41:31;10.15;;;3.00;;
28627;SDS011;15815;46.760;19.604;2023-04-01T16:49:44;3.58;;;2.33;;
28627;SDS011;15815;46.760;19.604;2023-04-01T16:52:17;7.38;;;2.13;;
28627;SDS011;15815;46.760;19.604;2023-04-01T16:55:17;6.20;;;2.35;;
28627;SDS011;15815;46.760;19.604;2023-04-01T16:57:52;13.13;;;7.05;;
28627;SDS011;15815;46.760;19.604;2023-04-01T17:00:26;13.88;;;7.70;;
28627;SDS011;15815;46.760;19.604;2023-04-01T17:02:56;21.50;;;10.23;;
28627;SDS011;15815;46.760;19.604;2023-04-01T17:09:26;16.05;;;8.10;;
28627;SDS011;15815;46.760;19.604;2023-04-01T17:23:00;6.80;;;3.38;;
28627;SDS011;15815;46.760;19.604;2023-04-01T17:25:53;4.68;;;2.65;;
28627;SDS011;15815;46.760;19.604;2023-04-01T17:36:50;21.13;;;9.93;;
28627;SDS011;15815;46.760;19.604;2023-04-01T17:42:15;19.20;;;11.05;;
28627;SDS011;15815;46.760;19.604;2023-04-01T17:51:02;16.02;;;7.53;;
28627;SDS011;15815;46.760;19.604;2023-04-01T17:53:47;19.38;;;9.95;;
28627;SDS011;15815;46.760;19.604;2023-04-01T17:59:38;21.00;;;10.68;;
28627;SDS011;15815;46.760;19.604;2023-04-01T18:02:15;19.38;;;11.63;;
28627;SDS011;15815;46.760;19.604;2023-04-01T18:05:24;15.20;;;9.68;;
28627;SDS011;15815;46.760;19.604;2023-04-01T18:13:29;19.45;;;8.05;;
28627;SDS011;15815;46.760;19.604;2023-04-01T18:22:09;7.53;;;3.65;;
28627;SDS011;15815;46.760;19.604;2023-04-01T18:24:45;12.20;;;4.30;;
28627;SDS011;15815;46.760;19.604;2023-04-01T18:27:29;13.10;;;7.45;;
28627;SDS011;15815;46.760;19.604;2023-04-01T18:39:03;21.95;;;12.32;;
28627;SDS011;15815;46.760;19.604;2023-04-01T18:47:59;32.47;;;17.08;;
28627;SDS011;15815;46.760;19.604;2023-04-01T18:50:41;19.92;;;11.88;;
28627;SDS011;15815;46.760;19.604;2023-04-01T18:56:03;18.50;;;12.63;;
28627;SDS011;15815;46.760;19.604;2023-04-01T18:58:36;23.08;;;14.10;;
28627;SDS011;15815;46.760;19.604;2023-04-01T19:01:26;31.88;;;19.05;;
28627;SDS011;15815;46.760;19.604;2023-04-01T19:07:19;25.55;;;16.25;;
28627;SDS011;15815;46.760;19.604;2023-04-01T19:09:52;14.20;;;9.57;;
28627;SDS011;15815;46.760;19.604;2023-04-01T19:35:35;25.73;;;12.48;;
28627;SDS011;15815;46.760;19.604;2023-04-01T19:38:30;29.02;;;13.23;;
28627;SDS011;15815;46.760;19.604;2023-04-01T19:46:54;36.30;;;18.42;;
28627;SDS011;15815;46.760;19.604;2023-04-01T19:49:32;39.70;;;20.85;;
28627;SDS011;15815;46.760;19.604;2023-04-01T19:55:13;27.45;;;15.95;;
28627;SDS011;15815;46.760;19.604;2023-04-01T19:57:56;23.45;;;12.30;;
28627;SDS011;15815;46.760;19.604;2023-04-01T20:00:50;19.33;;;10.35;;
28627;SDS011;15815;46.760;19.604;2023-04-01T20:11:30;25.83;;;14.32;;
28627;SDS011;15815;46.760;19.604;2023-04-01T20:19:36;8.00;;;5.70;;
28627;SDS011;15815;46.760;19.604;2023-04-01T20:22:38;10.60;;;5.53;;
28627;SDS011;15815;46.760;19.604;2023-04-01T20:27:58;11.88;;;7.78;;
28627;SDS011;15815;46.760;19.604;2023-04-01T20:38:35;11.18;;;6.90;;
28627;SDS011;15815;46.760;19.604;2023-04-01T20:44:03;11.43;;;6.63;;
28627;SDS011;15815;46.760;19.604;2023-04-01T20:49:29;26.98;;;14.75;;
28627;SDS011;15815;46.760;19.604;2023-04-01T20:54:52;12.23;;;6.93;;
28627;SDS011;15815;46.760;19.604;2023-04-01T21:00:28;9.13;;;6.35;;
28627;SDS011;15815;46.760;19.604;2023-04-01T21:03:10;11.15;;;6.28;;
28627;SDS011;15815;46.760;19.604;2023-04-01T21:30:18;24.17;;;11.77;;
28627;SDS011;15815;46.760;19.604;2023-04-01T21:32:54;11.38;;;7.25;;
28627;SDS011;15815;46.760;19.604;2023-04-01T21:52:10;12.68;;;5.47;;
28627;SDS011;15815;46.760;19.604;2023-04-01T22:02:53;4.72;;;3.20;;
28627;SDS011;15815;46.760;19.604;2023-04-01T22:05:40;6.97;;;3.28;;
28627;SDS011;15815;46.760;19.604;2023-04-01T22:13:39;5.50;;;2.95;;
28627;SDS011;15815;46.760;19.604;2023-04-01T22:16:20;6.32;;;2.92;;
28627;SDS011;15815;46.760;19.604;2023-04-01T22:19:10;3.75;;;3.00;;
28627;SDS011;15815;46.760;19.604;2023-04-01T22:21:54;6.18;;;2.85;;
28627;SDS011;15815;46.760;19.604;2023-04-01T22:29:49;4.78;;;2.65;;
28627;SDS011;15815;46.760;19.604;2023-04-01T22:32:28;5.47;;;3.42;;
28627;SDS011;15815;46.760;19.604;2023-04-01T22:40:55;4.00;;;2.65;;
28627;SDS011;15815;46.760;19.604;2023-04-01T22:43:51;3.05;;;2.50;;
28627;SDS011;15815;46.760;19.604;2023-04-01T22:49:17;3.70;;;2.75;;
28627;SDS011;15815;46.760;19.604;2023-04-01T22:52:02;8.32;;;4.55;;
28627;SDS011;15815;46.760;19.604;2023-04-01T22:54:35;13.95;;;7.13;;
28627;SDS011;15815;46.760;19.604;2023-04-01T22:57:49;11.07;;;6.32;;
28627;SDS011;15815;46.760;19.604;2023-04-01T23:00:00;9.27;;;5.75;;
28627;SDS011;15815;46.760;19.604;2023-04-01T23:02:31;7.50;;;4.50;;
28627;SDS011;15815;46.760;19.604;2023-04-01T23:05:02;6.18;;;3.88;;
28627;SDS011;15815;46.760;19.604;2023-04-01T23:07:36;6.22;;;3.42;;
28627;SDS011;15815;46.760;19.604;2023-04-01T23:10:25;6.03;;;3.67;;
28627;SDS011;15815;46.760;19.604;2023-04-01T23:12:58;7.68;;;3.65;;
28627;SDS011;15815;46.760;19.604;2023-04-01T23:15:26;5.47;;;3.60;;
28627;SDS011;15815;46.760;19.604;2023-04-01T23:27:10;8.75;;;4.43;;
28627;SDS011;15815;46.760;19.604;2023-04-01T23:29:19;7.25;;;4.25;;
28627;SDS011;15815;46.760;19.604;2023-04-01T23:31:46;8.07;;;5.10;;
28627;SDS011;15815;46.760;19.604;2023-04-01T23:36:43;7.03;;;5.03;;
28627;SDS011;15815;46.760;19.604;2023-04-01T23:41:59;9.02;;;5.68;;
28627;SDS011;15815;46.760;19.604;2023-04-01T23:44:28;8.10;;;5.75;;
28627;SDS011;15815;46.760;19.604;2023-04-01T23:46:54;8.90;;;5.15;;
28627;SDS011;15815;46.760;19.604;2023-04-01T23:49:43;12.52;;;5.60;;
28627;SDS011;15815;46.760;19.604;2023-04-01T23:52:22;8.23;;;5.28;;
28627;SDS011;15815;46.760;19.604;2023-04-01T23:58:12;22.17;;;10.45;;
